createdAt,value
2024-01-11T00:02:26.655Z,9.13
2024-01-11T00:04:57.149Z,9.20
2024-01-11T00:07:26.204Z,6.55
2024-01-11T00:09:54.990Z,9.50
2024-01-11T00:12:24.060Z,8.10
2024-01-11T00:14:52.725Z,8.32
2024-01-11T00:17:21.424Z,7.60
2024-01-11T00:19:51.557Z,7.15
2024-01-11T00:22:21.800Z,8.05
2024-01-11T00:24:50.674Z,7.43
2024-01-11T00:27:19.295Z,6.82
2024-01-11T00:29:48.155Z,7.60
2024-01-11T00:32:16.966Z,7.72
2024-01-11T00:34:45.628Z,8.50
2024-01-11T00:37:14.439Z,7.55
2024-01-11T00:39:44.961Z,8.07
2024-01-11T00:42:13.846Z,10.48
2024-01-11T00:44:42.238Z,9.73
2024-01-11T00:47:11.893Z,6.70
2024-01-11T00:49:40.720Z,11.07
2024-01-11T00:52:09.499Z,9.98
2024-01-11T00:54:39.129Z,10.57
2024-01-11T00:57:09.286Z,11.50
2024-01-11T00:59:38.134Z,11.02
2024-01-11T01:02:06.921Z,10.25
2024-01-11T01:04:35.626Z,6.97
2024-01-11T01:07:04.587Z,11.05
2024-01-11T01:09:33.429Z,11.48
2024-01-11T01:12:03.285Z,10.38
2024-01-11T01:14:33.403Z,7.28
2024-01-11T01:17:02.313Z,9.70
2024-01-11T01:19:31.049Z,10.73
2024-01-11T01:21:59.748Z,9.35
2024-01-11T01:24:28.685Z,12.73
2024-01-11T01:26:57.528Z,10.05
2024-01-11T01:29:26.296Z,7.72
2024-01-11T01:31:56.999Z,11.68
2024-01-11T01:34:25.951Z,8.55
2024-01-11T01:36:54.938Z,9.70
2024-01-11T01:39:23.868Z,12.20
2024-01-11T01:41:52.253Z,10.65
2024-01-11T01:44:20.993Z,9.52
2024-01-11T01:46:51.049Z,8.85
2024-01-11T01:49:23.624Z,9.93
2024-01-11T01:51:55.209Z,9.07
2024-01-11T01:54:25.088Z,9.75
2024-01-11T01:56:56.235Z,10.60
2024-01-11T01:59:27.496Z,9.85
2024-01-11T02:01:56.848Z,10.45
2024-01-11T02:04:27.225Z,9.70
2024-01-11T02:06:57.179Z,10.15
2024-01-11T02:09:26.485Z,11.40
2024-01-11T02:11:56.618Z,8.68
2024-01-11T02:14:25.457Z,6.50
2024-01-11T02:16:54.366Z,9.20
2024-01-11T02:19:23.205Z,12.27
2024-01-11T02:21:56.690Z,9.75
2024-01-11T02:24:26.973Z,8.60
2024-01-11T02:27:02.332Z,7.43
2024-01-11T02:29:31.874Z,9.45
2024-01-11T02:32:03.916Z,7.60
2024-01-11T02:34:33.128Z,8.27
2024-01-11T02:37:02.328Z,13.18
2024-01-11T02:39:32.493Z,9.32
2024-01-11T02:42:02.321Z,10.00
2024-01-11T02:44:31.000Z,9.80
2024-01-11T02:47:00.299Z,12.23
2024-01-11T02:49:30.105Z,10.80
2024-01-11T02:51:58.664Z,11.52
2024-01-11T02:54:27.584Z,10.40
2024-01-11T02:56:58.394Z,7.68
2024-01-11T02:59:27.423Z,12.93
2024-01-11T03:01:56.372Z,11.02
2024-01-11T03:04:25.343Z,14.80
2024-01-11T03:06:54.085Z,7.28
2024-01-11T03:09:22.860Z,10.73
2024-01-11T03:11:51.565Z,9.20
2024-01-11T03:14:22.270Z,10.25
2024-01-11T03:16:51.248Z,7.30
2024-01-11T03:19:20.210Z,9.02
2024-01-11T03:21:49.663Z,10.23
2024-01-11T03:24:18.537Z,10.35
2024-01-11T03:26:47.686Z,10.27
2024-01-11T03:29:19.495Z,10.30
2024-01-11T03:31:49.671Z,9.07
2024-01-11T03:34:18.810Z,10.13
2024-01-11T03:36:47.799Z,10.35
2024-01-11T03:39:16.533Z,9.13
2024-01-11T03:41:47.061Z,8.70
2024-01-11T03:44:15.874Z,13.07
2024-01-11T03:46:46.706Z,9.75
2024-01-11T03:49:17.061Z,6.75
2024-01-11T03:51:46.222Z,8.63
2024-01-11T03:54:15.180Z,10.93
2024-01-11T03:56:45.382Z,8.55
2024-01-11T03:59:15.451Z,9.25
2024-01-11T04:01:44.413Z,9.43
2024-01-11T04:04:14.005Z,6.50
2024-01-11T04:06:44.165Z,8.68
2024-01-11T04:09:12.987Z,11.35
2024-01-11T04:11:41.739Z,7.75
2024-01-11T04:14:10.486Z,8.05
2024-01-11T04:16:43.106Z,6.15
2024-01-11T04:19:12.441Z,9.18
2024-01-11T04:21:41.287Z,8.35
2024-01-11T04:24:11.520Z,10.48
2024-01-11T04:26:40.272Z,9.73
2024-01-11T04:29:09.334Z,11.23
2024-01-11T04:31:38.047Z,9.00
2024-01-11T04:34:07.073Z,7.68
2024-01-11T04:36:35.984Z,9.45
2024-01-11T04:39:04.804Z,9.50
2024-01-11T04:41:36.685Z,10.60
2024-01-11T04:44:05.772Z,9.80
2024-01-11T04:46:34.629Z,8.80
2024-01-11T04:49:04.652Z,5.03
2024-01-11T04:51:33.741Z,12.85
2024-01-11T04:54:03.411Z,6.25
2024-01-11T04:56:32.053Z,9.85
2024-01-11T04:59:02.272Z,8.85
2024-01-11T05:01:31.202Z,9.02
2024-01-11T05:03:59.985Z,9.20
2024-01-11T05:06:30.608Z,8.27
2024-01-11T05:08:59.283Z,8.00
2024-01-11T05:11:28.168Z,9.25
2024-01-11T05:13:57.018Z,7.72
2024-01-11T05:16:28.747Z,6.15
2024-01-11T05:18:59.471Z,8.55
2024-01-11T05:22:20.660Z,8.18
2024-01-11T05:24:51.926Z,7.47
2024-01-11T05:27:20.560Z,7.90
2024-01-11T05:29:49.443Z,9.45
2024-01-11T05:32:19.904Z,6.45
2024-01-11T05:34:48.937Z,7.43
2024-01-11T05:37:17.826Z,8.05
2024-01-11T05:39:46.752Z,8.45
2024-01-11T05:42:15.786Z,8.38
2024-01-11T05:44:45.243Z,8.20
2024-01-11T05:47:13.794Z,10.07
2024-01-11T05:49:44.210Z,9.38
2024-01-11T05:52:13.154Z,12.20
2024-01-11T05:54:41.796Z,13.65
2024-01-11T05:57:10.796Z,9.18
2024-01-11T05:59:39.627Z,13.75
2024-01-11T06:02:10.317Z,10.68
2024-01-11T06:04:39.306Z,10.27
2024-01-11T06:07:09.589Z,7.60
2024-01-11T06:09:38.972Z,7.95
2024-01-11T06:12:08.461Z,8.60
2024-01-11T06:14:37.972Z,8.98
2024-01-11T06:17:07.223Z,7.63
2024-01-11T06:19:36.040Z,9.70
2024-01-11T06:22:06.537Z,7.35
2024-01-11T06:24:39.586Z,8.80
2024-01-11T06:27:11.724Z,10.17
2024-01-11T06:29:40.645Z,11.15
2024-01-11T06:32:12.412Z,6.20
2024-01-11T06:34:42.681Z,9.65
2024-01-11T06:37:11.357Z,8.85
2024-01-11T06:39:41.401Z,7.93
2024-01-11T06:42:10.141Z,13.10
2024-01-11T06:44:39.027Z,8.60
2024-01-11T06:47:08.033Z,10.95
2024-01-11T06:49:40.136Z,9.65
2024-01-11T06:52:09.104Z,9.57
2024-01-11T06:54:37.907Z,8.68
2024-01-11T06:57:08.220Z,7.35
2024-01-11T06:59:37.032Z,9.65
2024-01-11T07:02:06.149Z,7.53
2024-01-11T07:04:35.984Z,8.88
2024-01-11T07:07:05.808Z,10.80
2024-01-11T07:09:34.591Z,7.25
2024-01-11T07:12:03.360Z,9.20
2024-01-11T07:14:33.513Z,5.45
2024-01-11T07:17:02.363Z,5.15
2024-01-11T07:19:31.352Z,8.25
2024-01-11T07:21:59.851Z,8.93
2024-01-11T07:24:30.887Z,9.82
2024-01-11T07:26:59.766Z,7.10
2024-01-11T07:29:28.728Z,9.27
2024-01-11T07:31:59.023Z,7.93
2024-01-11T07:34:28.105Z,12.32
2024-01-11T07:36:57.656Z,9.60
2024-01-11T07:39:26.658Z,6.32
2024-01-11T07:41:55.541Z,12.20
2024-01-11T07:44:24.573Z,9.52
2024-01-11T07:46:55.085Z,8.43
2024-01-11T07:49:26.626Z,6.63
2024-01-11T07:51:55.396Z,9.52
2024-01-11T07:54:24.536Z,9.25
2024-01-11T07:56:53.369Z,8.73
2024-01-11T07:59:22.193Z,7.15
2024-01-11T08:01:50.919Z,9.48
2024-01-11T08:04:19.728Z,14.27
2024-01-11T08:06:49.821Z,9.60
2024-01-11T08:09:19.240Z,7.22
2024-01-11T08:11:51.275Z,6.28
2024-01-11T08:14:21.020Z,12.13
2024-01-11T08:16:49.751Z,8.15
2024-01-11T08:19:18.659Z,9.40
2024-01-11T08:21:49.002Z,9.15
2024-01-11T08:24:19.084Z,11.82
2024-01-11T08:26:47.949Z,7.45
2024-01-11T08:29:17.270Z,10.63
2024-01-11T08:31:46.115Z,10.82
2024-01-11T08:34:15.024Z,10.85
2024-01-11T08:36:44.163Z,14.10
2024-01-11T08:39:14.315Z,13.63
2024-01-11T08:41:43.144Z,15.80
2024-01-11T08:44:12.192Z,9.88
2024-01-11T08:46:40.513Z,12.10
2024-01-11T08:49:09.698Z,11.75
2024-01-11T08:51:38.751Z,13.63
2024-01-11T08:54:09.961Z,14.57
2024-01-11T08:56:42.071Z,12.77
2024-01-11T08:59:11.101Z,14.80
2024-01-11T09:01:40.934Z,16.08
2024-01-11T09:04:10.400Z,15.63
2024-01-11T09:06:39.208Z,17.75
2024-01-11T09:09:11.308Z,15.20
2024-01-11T09:11:42.000Z,19.67
2024-01-11T09:14:12.363Z,19.00
2024-01-11T09:16:41.800Z,18.35
2024-01-11T09:19:10.535Z,19.88
2024-01-11T09:21:39.501Z,19.58
2024-01-11T09:24:08.433Z,18.20
2024-01-11T09:26:37.851Z,17.63
2024-01-11T09:29:08.027Z,18.80
2024-01-11T09:31:36.876Z,17.95
2024-01-11T09:34:05.648Z,14.70
2024-01-11T09:36:34.985Z,21.60
2024-01-11T09:39:11.073Z,19.92
2024-01-11T09:41:49.517Z,19.25
2024-01-11T09:44:20.378Z,21.80
2024-01-11T09:46:49.597Z,19.17
2024-01-11T09:49:21.485Z,20.42
2024-01-11T09:51:50.917Z,21.80
2024-01-11T09:54:22.852Z,19.75
2024-01-11T09:56:53.425Z,21.67
2024-01-11T09:59:26.203Z,21.65
2024-01-11T10:01:55.374Z,19.70
2024-01-11T10:04:24.454Z,22.20
2024-01-11T10:06:54.442Z,20.00
2024-01-11T10:09:24.075Z,22.60
2024-01-11T10:11:54.419Z,20.90
2024-01-11T10:14:24.734Z,18.38
2024-01-11T10:16:55.874Z,18.27
2024-01-11T10:19:25.823Z,20.10
2024-01-11T10:21:54.454Z,19.48
2024-01-11T10:24:27.171Z,20.88
2024-01-11T10:26:59.408Z,21.77
2024-01-11T10:29:34.161Z,20.58
2024-01-11T10:32:03.604Z,23.02
2024-01-11T10:34:32.634Z,20.40
2024-01-11T10:37:02.379Z,20.10
2024-01-11T10:39:32.705Z,21.42
2024-01-11T10:42:10.817Z,20.88
2024-01-11T10:44:48.584Z,18.77
2024-01-11T10:47:19.036Z,19.63
2024-01-11T10:49:49.403Z,21.95
2024-01-11T10:52:23.546Z,22.52
2024-01-11T10:54:52.928Z,24.23
2024-01-11T10:57:22.430Z,22.23
2024-01-11T10:59:54.081Z,23.63
2024-01-11T11:02:24.443Z,23.52
2024-01-11T11:04:55.468Z,24.10
2024-01-11T11:07:24.947Z,33.97
2024-01-11T11:09:56.290Z,43.03
2024-01-11T11:12:26.423Z,37.17
2024-01-11T11:14:58.220Z,28.10
2024-01-11T11:17:28.650Z,42.88
2024-01-11T11:19:57.833Z,30.40
2024-01-11T11:22:29.728Z,23.95
2024-01-11T11:25:07.766Z,24.65
2024-01-11T11:27:36.975Z,23.13
2024-01-11T11:30:09.194Z,21.63
2024-01-11T11:32:39.128Z,21.42
2024-01-11T11:35:09.644Z,22.08
2024-01-11T11:37:39.814Z,20.67
2024-01-11T11:40:11.682Z,19.88
2024-01-11T11:42:41.769Z,23.08
2024-01-11T11:45:13.014Z,21.27
2024-01-11T11:47:43.928Z,18.63
2024-01-11T11:50:15.030Z,21.42
2024-01-11T11:52:44.045Z,23.05
2024-01-11T11:55:13.916Z,24.48
2024-01-11T11:57:46.476Z,20.77
2024-01-11T12:00:20.753Z,24.45
2024-01-11T12:02:51.344Z,24.27
2024-01-11T12:05:21.427Z,22.75
2024-01-11T12:07:50.478Z,24.92
2024-01-11T12:10:19.152Z,20.92
2024-01-11T12:12:49.332Z,21.42
2024-01-11T12:15:19.807Z,21.02
2024-01-11T12:17:48.739Z,20.08
2024-01-11T12:20:17.784Z,19.85
2024-01-11T12:22:47.415Z,19.33
2024-01-11T12:25:16.346Z,21.73
2024-01-11T12:27:45.299Z,22.50
2024-01-11T12:30:18.200Z,20.42
2024-01-11T12:32:48.609Z,20.13
2024-01-11T12:35:19.222Z,19.58
2024-01-11T12:37:56.247Z,20.13
2024-01-11T12:40:25.246Z,17.73
2024-01-11T12:42:54.045Z,18.92
2024-01-11T12:45:22.683Z,19.13
2024-01-11T12:47:52.673Z,18.52
2024-01-11T12:50:21.854Z,18.77
2024-01-11T12:53:08.689Z,18.35
2024-01-11T12:55:48.017Z,18.10
2024-01-11T12:58:25.385Z,18.77
2024-01-11T13:00:54.124Z,19.02
2024-01-11T13:03:24.248Z,18.63
2024-01-11T13:05:54.394Z,19.42
2024-01-11T13:08:23.148Z,21.98
2024-01-11T13:10:52.030Z,19.25
2024-01-11T13:13:21.860Z,19.35
2024-01-11T13:15:51.883Z,18.77
2024-01-11T13:18:27.259Z,20.88
2024-01-11T13:20:56.928Z,19.35
2024-01-11T13:23:26.213Z,19.00
2024-01-11T13:25:55.025Z,17.50
2024-01-11T13:28:23.847Z,18.13
2024-01-11T13:30:52.630Z,16.35
2024-01-11T13:33:23.552Z,18.25
2024-01-11T13:35:54.060Z,19.20
2024-01-11T13:38:25.297Z,18.70
2024-01-11T13:40:55.097Z,17.80
2024-01-11T13:43:23.761Z,18.33
2024-01-11T13:45:52.629Z,16.92
2024-01-11T13:48:21.458Z,19.25
2024-01-11T13:50:50.381Z,17.38
2024-01-11T13:53:21.817Z,17.08
2024-01-11T13:55:50.637Z,17.63
2024-01-11T13:58:20.427Z,17.80
2024-01-11T14:00:49.421Z,16.92
2024-01-11T14:03:18.924Z,19.95
2024-01-11T14:05:48.790Z,16.67
2024-01-11T14:08:19.413Z,18.27
2024-01-11T14:10:48.423Z,19.08
2024-01-11T14:13:18.391Z,19.52
2024-01-11T14:15:49.248Z,18.67
2024-01-11T14:18:18.430Z,18.33
2024-01-11T14:20:48.084Z,18.45
2024-01-11T14:23:17.285Z,22.05
2024-01-11T14:25:48.469Z,18.50
2024-01-11T14:28:18.146Z,19.42
2024-01-11T14:30:47.321Z,17.95
2024-01-11T14:33:18.881Z,18.33
2024-01-11T14:35:48.213Z,17.35
2024-01-11T14:38:16.978Z,17.73
2024-01-11T14:40:47.395Z,20.30
2024-01-11T14:43:16.211Z,18.23
2024-01-11T14:45:44.645Z,18.33
2024-01-11T14:48:13.819Z,18.67
2024-01-11T14:50:42.819Z,16.17
2024-01-11T14:53:11.512Z,17.67
2024-01-11T14:55:40.392Z,15.95
2024-01-11T14:58:10.689Z,17.08
2024-01-11T15:00:39.429Z,17.48
2024-01-11T15:03:10.254Z,17.85
2024-01-11T15:05:42.281Z,15.73
2024-01-11T15:08:11.006Z,16.33
2024-01-11T15:10:39.941Z,14.52
2024-01-11T15:13:12.171Z,16.13
2024-01-11T15:15:40.979Z,15.55
2024-01-11T15:18:09.838Z,16.23
2024-01-11T15:20:38.911Z,16.55
2024-01-11T15:23:08.093Z,17.08
2024-01-11T15:25:37.040Z,16.02
2024-01-11T15:28:06.126Z,16.38
2024-01-11T15:30:36.630Z,16.02
2024-01-11T15:33:05.983Z,15.90
2024-01-11T15:35:34.826Z,16.02
2024-01-11T15:38:05.276Z,16.90
2024-01-11T15:40:34.138Z,16.98
2024-01-11T15:43:04.876Z,17.23
2024-01-11T15:45:36.932Z,16.63
2024-01-11T15:48:08.097Z,16.02
2024-01-11T15:50:37.056Z,14.35
2024-01-11T15:53:06.169Z,15.07
2024-01-11T15:55:35.069Z,15.48
2024-01-11T15:58:05.336Z,13.68
2024-01-11T16:00:35.553Z,16.00
2024-01-11T16:03:07.953Z,14.30
2024-01-11T16:05:38.750Z,16.25
2024-01-11T16:08:09.783Z,15.38
2024-01-11T16:10:38.732Z,14.82
2024-01-11T16:13:07.601Z,14.02
2024-01-11T16:15:37.632Z,13.95
2024-01-11T16:18:07.132Z,15.38
2024-01-11T16:20:36.337Z,17.42
2024-01-11T16:23:05.332Z,12.52
2024-01-11T16:25:34.142Z,13.93
2024-01-11T16:28:03.346Z,13.98
2024-01-11T16:30:32.093Z,16.55
2024-01-11T16:33:02.414Z,18.50
2024-01-11T16:35:33.343Z,14.38
2024-01-11T16:38:04.345Z,17.00
2024-01-11T16:40:33.121Z,15.63
2024-01-11T16:43:02.445Z,14.73
2024-01-11T16:45:32.782Z,12.60
2024-01-11T16:48:05.799Z,14.80
2024-01-11T16:50:34.738Z,14.90
2024-01-11T16:53:04.942Z,14.93
2024-01-11T16:55:34.240Z,15.50
2024-01-11T16:58:04.112Z,14.30
2024-01-11T17:00:32.930Z,16.02
2024-01-11T17:03:03.767Z,15.32
2024-01-11T17:05:32.831Z,15.98
2024-01-11T17:08:02.196Z,16.15
2024-01-11T17:10:30.890Z,15.45
2024-01-11T17:12:59.614Z,13.25
2024-01-11T17:15:30.290Z,14.77
2024-01-11T17:17:59.233Z,14.98
2024-01-11T17:20:29.336Z,16.50
2024-01-11T17:22:58.743Z,13.10
2024-01-11T17:25:29.416Z,14.95
2024-01-11T17:27:58.173Z,15.40
2024-01-11T17:30:27.209Z,14.13
2024-01-11T17:32:57.249Z,15.27
2024-01-11T17:35:26.012Z,15.73
2024-01-11T17:37:56.230Z,13.68
2024-01-11T17:40:24.854Z,14.45
2024-01-11T17:42:53.827Z,15.23
2024-01-11T17:45:22.908Z,30.20
2024-01-11T17:47:51.681Z,34.92
2024-01-11T17:50:20.553Z,27.40
2024-01-11T17:52:51.389Z,20.15
2024-01-11T17:55:22.760Z,17.20
2024-01-11T17:57:51.382Z,15.00
2024-01-11T18:00:20.864Z,12.48
2024-01-11T18:02:49.925Z,11.95
2024-01-11T18:05:21.144Z,14.27
2024-01-11T18:07:50.484Z,17.63
2024-01-11T18:10:21.727Z,15.13
2024-01-11T18:12:52.013Z,17.25
2024-01-11T18:15:21.151Z,18.55
2024-01-11T18:17:50.130Z,16.00
2024-01-11T18:20:19.186Z,16.88
2024-01-11T18:22:48.552Z,15.63
2024-01-11T18:25:17.672Z,16.10
2024-01-11T18:27:47.454Z,14.05
2024-01-11T18:30:17.993Z,15.23
2024-01-11T18:32:47.259Z,13.13
2024-01-11T18:35:16.212Z,15.13
2024-01-11T18:37:44.999Z,13.02
2024-01-11T18:40:14.183Z,16.15
2024-01-11T18:42:42.845Z,13.57
2024-01-11T18:45:12.235Z,16.17
2024-01-11T18:47:42.533Z,13.40
2024-01-11T18:50:11.516Z,13.98
2024-01-11T18:52:40.197Z,14.52
2024-01-11T18:55:16.512Z,16.90
2024-01-11T18:57:46.952Z,16.65
2024-01-11T19:00:16.367Z,16.08
2024-01-11T19:02:49.400Z,19.35
2024-01-11T19:05:20.339Z,21.05
2024-01-11T19:07:49.508Z,16.33
2024-01-11T19:10:18.356Z,15.57
2024-01-11T19:12:47.301Z,15.05
2024-01-11T19:15:15.739Z,16.92
2024-01-11T19:17:46.242Z,15.10
2024-01-11T19:20:15.289Z,16.80
2024-01-11T19:22:44.092Z,17.77
2024-01-11T19:25:13.007Z,14.25
2024-01-11T19:27:41.748Z,16.38
2024-01-11T19:30:11.586Z,15.48
2024-01-11T19:32:40.433Z,17.92
2024-01-11T19:35:11.236Z,16.85
2024-01-11T19:37:40.217Z,16.23
2024-01-11T19:40:09.964Z,14.77
2024-01-11T19:42:38.786Z,16.27
2024-01-11T19:45:08.380Z,16.05
2024-01-11T19:47:38.338Z,16.33
2024-01-11T19:50:10.105Z,15.15
2024-01-11T19:52:39.070Z,16.80
2024-01-11T19:55:08.732Z,16.77
2024-01-11T19:57:37.826Z,16.58
2024-01-11T20:00:08.456Z,16.52
2024-01-11T20:02:40.165Z,14.60
2024-01-11T20:05:10.691Z,14.52
2024-01-11T20:07:39.704Z,16.00
2024-01-11T20:10:09.775Z,16.15
2024-01-11T20:12:39.073Z,13.07
2024-01-11T20:15:09.838Z,13.93
2024-01-11T20:17:38.872Z,13.88
2024-01-11T20:20:10.658Z,14.48
2024-01-11T20:22:39.577Z,13.52
2024-01-11T20:25:08.686Z,12.05
2024-01-11T20:27:37.695Z,11.07
2024-01-11T20:30:10.921Z,13.02
2024-01-11T20:32:41.274Z,12.43
2024-01-11T20:35:11.835Z,11.68
2024-01-11T20:37:41.628Z,11.75
2024-01-11T20:40:11.476Z,17.08
2024-01-11T20:42:40.552Z,14.98
2024-01-11T20:45:10.085Z,11.00
2024-01-11T20:47:39.155Z,13.52
2024-01-11T20:50:11.846Z,9.80
2024-01-11T20:52:41.263Z,11.48
2024-01-11T20:55:24.813Z,10.10
2024-01-11T20:57:54.855Z,8.18
2024-01-11T21:00:25.278Z,11.38
2024-01-11T21:02:56.691Z,11.05
2024-01-11T21:05:29.730Z,6.80
2024-01-11T21:08:00.373Z,9.95
2024-01-11T21:10:30.091Z,7.97
2024-01-11T21:12:59.126Z,9.07
2024-01-11T21:15:28.836Z,10.35
2024-01-11T21:17:57.999Z,9.55
2024-01-11T21:20:30.947Z,11.43
2024-01-11T21:23:02.309Z,10.35
2024-01-11T21:25:31.768Z,13.82
2024-01-11T21:28:02.185Z,13.25
2024-01-11T21:30:33.125Z,13.13
2024-01-11T21:33:05.978Z,12.93
2024-01-11T21:35:36.836Z,14.85
2024-01-11T21:38:08.321Z,14.32
2024-01-11T21:40:39.230Z,15.15
2024-01-11T21:43:09.552Z,14.52
2024-01-11T21:45:38.804Z,10.45
2024-01-11T21:48:08.232Z,13.38
2024-01-11T21:50:39.887Z,11.93
2024-01-11T21:53:08.988Z,11.23
2024-01-11T21:55:39.734Z,9.73
2024-01-11T21:58:08.645Z,9.52
2024-01-11T22:00:37.702Z,10.48
2024-01-11T22:03:08.224Z,11.20
2024-01-11T22:05:39.319Z,9.57
2024-01-11T22:08:08.513Z,9.38
2024-01-11T22:10:37.341Z,11.77
2024-01-11T22:13:07.451Z,10.77
2024-01-11T22:15:37.535Z,12.02
2024-01-11T22:18:07.123Z,11.10
2024-01-11T22:20:36.787Z,11.07
2024-01-11T22:23:07.162Z,11.20
2024-01-11T22:25:35.938Z,8.77
2024-01-11T22:28:04.767Z,10.60
2024-01-11T22:30:34.329Z,9.25
2024-01-11T22:33:03.723Z,8.27
2024-01-11T22:35:32.544Z,7.13
2024-01-11T22:38:02.213Z,10.25
2024-01-11T22:40:32.299Z,9.63
2024-01-11T22:43:00.897Z,9.60
2024-01-11T22:45:29.717Z,7.30
2024-01-11T22:47:58.783Z,7.15
2024-01-11T22:50:27.940Z,7.00
2024-01-11T22:52:58.535Z,7.55
2024-01-11T22:55:27.516Z,7.82
2024-01-11T22:57:57.838Z,8.27
2024-01-11T23:00:27.234Z,10.45
2024-01-11T23:02:56.006Z,7.97
2024-01-11T23:05:26.882Z,8.13
2024-01-11T23:07:55.710Z,7.95
2024-01-11T23:10:24.049Z,10.18
2024-01-11T23:12:52.716Z,6.32
2024-01-11T23:15:22.783Z,5.65
2024-01-11T23:17:51.806Z,6.05
2024-01-11T23:20:20.749Z,5.72
2024-01-11T23:22:49.602Z,5.05
2024-01-11T23:25:18.497Z,6.07
2024-01-11T23:27:47.461Z,6.82
2024-01-11T23:30:16.721Z,5.90
2024-01-11T23:32:47.008Z,6.35
2024-01-11T23:35:16.070Z,4.25
2024-01-11T23:37:45.061Z,7.35
2024-01-11T23:40:14.048Z,6.35
2024-01-11T23:42:42.700Z,5.35
2024-01-11T23:45:11.916Z,6.35
2024-01-11T23:47:41.286Z,5.60
2024-01-11T23:50:12.142Z,5.78
2024-01-11T23:52:40.986Z,4.70
2024-01-11T23:55:10.212Z,5.70
2024-01-11T23:57:39.106Z,5.70
